Latest Weather Observations for Rolleston Airport

IDQ60801

Issued at 11:31 pm EST Friday 12 February 2016 (issued every 30 minutes, with the page automatically refreshed every 10 minutes)

About weather observations | Map of weather stations | Latest weather observations for QLD | Other Formats
Station Details ID: 035129 Name: ROLLESTON AIRPORT Lat: -24.46 Lon: 148.63 Height: 219.45 m
Data from the previous 72 hours. | See also: Recent months at Rolleston Airport
Date/Time
EST
Temp
°C
App
Temp
°C
Dew
Point
Rel
Hum
%
Delta-T
°C
Wind Press
QNH
hPa
Press
MSL
hPa
Rain
since 9 am
mm
Dir
 
Spd
km/h
Gust
km/h
Spd
kts
Gust
kts
12/11:30pm 21.4 21.9 15.5 69 3.6 SE 7 9 4 5 1010.8 1009.4 0.0
12/11:00pm 22.9 23.5 15.2 62 4.6 S 6 6 3 3 1011.0 1009.6 0.0
12/10:30pm 23.8 24.3 15.0 57 5.3 S 6 6 3 3 1011.1 1009.7 0.0
12/10:00pm 24.0 24.8 14.7 56 5.6 S 4 6 2 3 1011.0 1009.6 0.0
12/09:30pm 24.4 25.1 14.5 54 5.9 SSE 4 6 2 3 1010.9 1009.5 0.0
12/09:00pm 24.9 25.3 13.8 50 6.6 SSE 4 6 2 3 1010.8 1009.4 0.0
12/08:30pm 25.7 25.2 13.9 48 7.0 SE 9 11 5 6 1010.6 1009.2 0.0
12/08:00pm 26.1 25.5 13.6 46 7.4 SE 9 13 5 7 1010.5 1009.1 0.0
12/07:30pm 27.3 26.1 12.9 41 8.5 SE 11 13 6 7 1010.3 1008.9 0.0
12/07:00pm 28.7 26.5 12.2 36 9.7 SE 15 17 8 9 1010.2 1008.8 0.0
12/06:30pm 30.3 27.1 11.8 32 10.9 SE 20 26 11 14 1009.9 1008.5 0.0
12/06:00pm 31.3 27.9 12.6 31 11.2 SE 22 32 12 17 1009.7 1008.2 0.0
12/05:30pm 32.4 28.9 12.1 29 12.1 SSE 22 35 12 19 1009.5 1008.0 0.0
12/05:00pm 33.1 29.2 12.1 27 12.6 SSE 24 37 13 20 1009.2 1007.7 0.0
12/04:30pm 32.7 29.1 12.9 30 12.0 SSE 24 33 13 18 1009.0 1007.5 0.0
12/04:00pm 33.3 30.8 13.4 30 12.2 SSE 19 28 10 15 1009.0 1007.5 0.0
12/03:30pm 32.3 29.2 13.5 32 11.4 SSE 22 35 12 19 1009.3 1007.8 0.0
12/03:00pm 33.0 30.5 13.6 31 11.9 S 19 30 10 16 1009.4 1007.9 0.0
12/02:30pm 32.9 30.9 15.0 34 11.2 S 19 32 10 17 1009.9 1008.5 0.0
12/02:00pm 32.9 31.8 15.4 35 11.0 S 15 24 8 13 1010.2 1008.8 0.0
12/01:30pm 31.2 29.0 14.4 36 10.3 SSE 19 28 10 15 1010.6 1009.2 0.0
12/01:00pm 31.4 29.8 15.0 37 10.2 S 17 26 9 14 1010.8 1009.4 0.0
12/12:30pm 30.5 29.8 15.4 40 9.4 SSE 13 26 7 14 1011.2 1009.8 0.0
12/12:00pm 30.2 29.8 16.2 42 8.8 S 13 28 7 15 1011.6 1010.2 0.0
12/11:30am 29.6 29.0 15.7 43 8.7 SE 13 26 7 14 1012.2 1010.7 0.0
12/11:00am 29.0 29.1 15.5 44 8.4 SSE 9 22 5 12 1012.5 1011.0 0.0
12/10:30am 28.7 29.6 16.6 48 7.6 SSE 7 19 4 10 1012.9 1011.4 0.0
12/10:00am 28.1 28.1 15.1 45 8.0 ESE 9 19 5 10 1013.2 1011.7 0.0
12/09:30am 27.2 27.1 15.9 50 7.0 SE 11 19 6 10 1013.6 1012.1 0.0
12/09:00am 26.2 26.1 17.0 57 5.8 SSE 13 20 7 11 1013.8 1012.3 0.0
12/08:30am 25.7 26.2 17.4 60 5.2 SE 11 19 6 10 1013.6 1012.1 0.0
12/08:00am 24.8 26.0 17.3 63 4.7 SE 7 15 4 8 1013.4 1011.9 0.0
12/07:30am 23.9 25.5 18.3 71 3.6 SSE 7 9 4 5 1013.6 1012.1 0.0
12/07:00am 22.2 23.8 17.8 76 2.8 SSE 6 7 3 4 1013.3 1011.8 0.0
12/06:30am 21.2 23.5 18.6 85 1.6 S 4 6 2 3 1013.1 1011.6 0.0
12/06:00am 19.9 21.5 17.9 88 1.2 SSE 6 6 3 3 1012.9 1011.4 0.0
12/05:30am 19.8 21.4 17.9 89 1.2 SSE 6 7 3 4 1012.6 1011.1 0.0
12/05:00am 20.2 22.2 17.8 86 1.5 S 4 6 2 3 1012.2 1010.7 0.0
12/04:30am 20.3 22.4 18.2 88 1.3 SSW 4 6 2 3 1011.9 1010.4 0.0
12/04:00am 20.5 22.3 18.4 88 1.3 SSW 6 7 3 4 1011.6 1010.2 0.0
12/03:30am 20.6 23.0 18.0 85 1.6 SSE 2 4 1 2 1011.4 1010.0 0.0
12/03:00am 20.7 22.5 18.3 86 1.5 SE 6 6 3 3 1011.3 1009.9 0.0
12/02:30am 21.0 22.6 17.8 82 2.0 SE 6 6 3 3 1011.4 1010.0 0.0
12/02:00am 20.8 21.9 17.2 80 2.2 SSE 7 9 4 5 1011.6 1010.2 0.0
12/01:30am 22.2 23.6 17.3 74 3.0 ESE 6 6 3 3 1011.5 1010.1 0.0
12/01:00am 23.1 24.3 17.3 70 3.6 E 7 11 4 6 1011.6 1010.2 0.0
12/12:30am 23.7 23.5 16.7 65 4.3 E 13 17 7 9 1011.6 1010.2 0.0
12/12:00am 22.6 22.9 15.9 66 4.1 ESE 9 13 5 7 1011.5 1010.1 0.0
 
Date/Time
EST
Temp
°C
App
Temp
°C
Dew
Point
Rel
Hum
%
Delta-T
°C
Wind Press
QNH
hPa
Press
MSL
hPa
Rain
since 9 am
mm
Dir
 
Spd
km/h
Gust
km/h
Spd
kts
Gust
kts
11/11:30pm 22.8 23.8 15.4 63 4.5 SSW 4 6 2 3 1011.2 1009.8 0.0
11/11:00pm 23.6 24.6 15.4 60 5.0 SSW 4 6 2 3 1011.2 1009.8 0.0
11/10:30pm 24.1 24.7 15.3 58 5.3 SSW 6 6 3 3 1011.2 1009.8 0.0
11/10:00pm 24.2 25.3 15.7 59 5.2 SSW 4 6 2 3 1011.3 1009.9 0.0
11/09:30pm 24.3 24.9 15.2 57 5.5 SSW 6 7 3 4 1011.4 1010.0 0.0
11/09:00pm 24.8 25.7 15.1 54 5.9 SSE 4 6 2 3 1011.2 1009.8 0.0
11/08:30pm 25.5 26.0 14.9 52 6.4 SSE 6 7 3 4 1010.9 1009.5 0.0
11/08:00pm 26.0 25.6 14.1 47 7.1 ESE 9 9 5 5 1010.5 1009.1 0.0
11/07:30pm 27.9 27.3 13.4 40 8.7 ESE 9 13 5 7 1010.2 1008.8 0.0
11/07:00pm 28.8 28.2 13.5 39 9.2 ESE 9 11 5 6 1010.1 1008.7 0.0
11/06:30pm 30.1 28.4 12.5 34 10.5 SE 13 17 7 9 1009.8 1008.3 0.0
11/06:00pm 30.8 28.4 12.7 33 10.8 SE 17 22 9 12 1009.6 1008.1 0.0
11/05:30pm 31.4 30.2 12.7 32 11.2 SSE 11 17 6 9 1009.2 1007.7 0.0
11/05:00pm 30.8 28.6 12.2 32 11.0 SE 15 20 8 11 1008.9 1007.4 0.0
11/04:30pm 32.8 31.9 14.9 34 11.1 SSE 13 20 7 11 1008.5 1007.0 0.0
11/04:00pm 31.9 30.2 13.6 32 11.2 SSE 15 26 8 14 1008.6 1007.1 0.0
11/03:30pm 31.4 29.9 14.1 35 10.6 SSE 15 22 8 12 1008.8 1007.3 0.0
11/03:00pm 32.1 32.2 15.6 37 10.4 S 9 20 5 11 1009.1 1007.6 0.0
11/02:30pm 30.2 29.7 13.9 37 9.9 ESE 9 20 5 11 1009.4 1007.9 0.0
11/02:00pm 31.2 29.8 14.4 36 10.3 SSE 15 24 8 13 1009.9 1008.5 0.0
11/01:30pm 30.6 29.7 15.8 40 9.3 SE 15 24 8 13 1010.4 1009.0 0.0
11/01:00pm 30.1 29.0 14.2 38 9.7 SSE 13 24 7 13 1010.9 1009.5 0.0
11/12:30pm 28.8 27.3 15.3 43 8.3 SE 17 28 9 15 1011.4 1010.0 0.0
11/12:00pm 29.4 28.6 14.0 39 9.3 SSE 11 22 6 12 1011.9 1010.4 0.0
11/11:30am 29.5 29.6 15.6 43 8.6 SE 9 19 5 10 1012.4 1010.9 0.0
11/11:00am 28.9 29.6 17.1 49 7.5 ESE 9 22 5 12 1012.6 1011.1 0.0
11/10:30am 27.9 26.9 15.5 46 7.6 SE 15 24 8 13 1012.9 1011.4 0.0
11/10:00am 27.9 26.0 15.2 46 7.8 SE 19 26 10 14 1013.2 1011.7 0.0
11/09:30am 27.3 26.7 16.6 52 6.7 E 15 28 8 15 1013.1 1011.6 0.0
11/09:00am 26.2 25.2 16.7 56 5.9 ESE 17 24 9 13 1013.4 1011.9 0.0
11/08:30am 25.5 25.5 17.2 60 5.2 ESE 13 19 7 10 1013.4 1011.9 0.0
11/08:00am 24.2 25.0 18.2 69 3.8 SE 11 17 6 9 1013.3 1011.8 0.0
11/07:30am 23.0 24.1 17.9 73 3.2 SSE 9 15 5 8 1013.2 1011.7 0.0
11/07:00am 22.4 24.7 18.6 79 2.4 S 4 6 2 3 1012.9 1011.4 0.0
11/06:30am 20.5 23.0 18.1 86 1.5 SSW 2 4 1 2 1012.7 1011.2 0.0
11/06:00am 19.7 22.0 17.7 88 1.2 S 2 4 1 2 1012.1 1010.6 0.0
11/05:30am 19.6 21.5 17.6 88 1.2 SSE 4 4 2 2 1011.6 1010.2 0.0
11/05:00am 19.6 21.0 17.4 87 1.4 S 6 7 3 4 1011.2 1009.8 0.0
11/04:30am 20.0 21.6 17.8 87 1.4 SE 6 6 3 3 1011.0 1009.6 0.0
11/04:00am 19.8 21.4 17.0 84 1.7 SSE 4 6 2 3 1010.9 1009.5 0.0
11/03:30am 19.5 20.7 16.9 85 1.6 SSE 6 7 3 4 1010.8 1009.4 0.0
11/03:00am 20.4 21.7 17.0 81 2.1 SE 6 6 3 3 1010.5 1009.1 0.0
11/02:30am 20.5 21.6 16.7 79 2.3 SE 6 7 3 4 1010.4 1009.0 0.0
11/02:00am 20.3 21.3 16.9 81 2.1 SSE 7 9 4 5 1010.4 1009.0 0.0
11/01:30am 20.7 21.4 17.1 80 2.2 SE 9 11 5 6 1010.6 1009.2 0.0
11/01:00am 21.0 22.0 16.8 77 2.6 SSE 7 7 4 4 1010.7 1009.3 0.0
11/12:30am 20.9 21.9 16.9 78 2.5 SE 7 9 4 5 1011.0 1009.6 0.0
11/12:00am 22.0 23.1 16.7 72 3.3 SSE 6 7 3 4 1011.1 1009.7 0.0
 
Date/Time
EST
Temp
°C
App
Temp
°C
Dew
Point
Rel
Hum
%
Delta-T
°C
Wind Press
QNH
hPa
Press
MSL
hPa
Rain
since 9 am
mm
Dir
 
Spd
km/h
Gust
km/h
Spd
kts
Gust
kts
10/11:30pm 22.0 23.1 16.5 71 3.4 SSE 6 6 3 3 1011.5 1010.1 0.0
10/11:00pm 22.2 23.1 16.2 69 3.7 SSE 6 6 3 3 1011.7 1010.3 0.0
10/10:30pm 22.8 23.6 15.9 65 4.2 SSE 6 6 3 3 1011.9 1010.4 0.0
10/10:00pm 22.9 23.8 16.0 65 4.2 S 6 6 3 3 1011.9 1010.4 0.0
10/09:30pm 23.9 24.9 15.4 59 5.2 SSE 4 6 2 3 1011.9 1010.4 0.0
10/09:00pm 24.1 24.6 15.1 57 5.4 SSE 6 6 3 3 1011.5 1010.1 0.0
10/08:30pm 25.2 25.9 14.6 51 6.4 SSE 4 4 2 2 1011.3 1009.9 0.0
10/08:00pm 25.5 26.1 14.3 50 6.7 SSE 4 6 2 3 1011.1 1009.7 0.0
10/07:30pm 26.1 26.1 14.2 48 7.1 ESE 7 7 4 4 1010.9 1009.5 0.0
10/07:00pm 27.6 26.9 13.2 41 8.6 ESE 9 11 5 6 1010.8 1009.4 0.0
10/06:30pm 29.3 28.3 12.3 35 10.0 SE 9 11 5 6 1010.5 1009.1 0.0
10/06:00pm 28.8 27.9 12.7 37 9.6 SE 9 11 5 6 1010.2 1008.8 0.0
10/05:30pm 29.5 28.4 12.0 34 10.3 ESE 9 13 5 7 1010.1 1008.7 0.0
10/05:00pm 31.1 29.5 12.9 32 10.9 SSE 13 26 7 14 1010.0 1008.6 0.0
10/04:30pm 29.7 27.3 12.6 35 10.2 SSE 17 26 9 14 1010.0 1008.6 0.0
10/04:00pm 30.8 29.7 13.1 34 10.7 S 11 22 6 12 1009.9 1008.5 0.0
10/03:30pm 30.6 29.3 12.5 33 10.8 SSE 11 26 6 14 1010.0 1008.6 0.0
10/03:00pm 30.0 27.4 13.7 37 9.9 SSE 20 26 11 14 1010.2 1008.8 0.0
10/02:30pm 29.3 26.6 11.8 34 10.2 SE 17 28 9 15 1010.6 1009.2 0.0
10/02:00pm 29.6 26.8 12.5 35 10.1 SSE 19 32 10 17 1010.9 1009.5 0.0
10/01:30pm 29.8 27.4 12.7 35 10.2 SE 17 30 9 16 1011.3 1009.9 0.0
10/01:00pm 29.4 26.1 12.8 36 9.9 ESE 22 35 12 19 1011.7 1010.3 0.0
10/12:30pm 28.6 26.3 12.9 38 9.3 SSE 17 30 9 16 1012.3 1010.8 0.0
10/12:00pm 27.9 26.6 13.8 42 8.5 SSE 13 24 7 13 1012.6 1011.1 0.0
10/11:30am 27.7 26.4 14.7 45 7.9 E 15 20 8 11 1013.1 1011.6 0.0
10/11:00am 26.5 26.2 14.3 47 7.3 SSE 9 20 5 11 1013.5 1012.0 0.0
10/10:30am 25.7 24.6 14.2 49 6.9 SE 13 20 7 11 1013.8 1012.3 0.0
10/10:00am 26.2 24.8 14.6 48 7.0 ESE 15 24 8 13 1014.0 1012.6 0.0
10/09:30am 25.4 23.0 13.9 49 6.8 SE 19 30 10 16 1014.2 1012.8 0.0
10/09:00am 25.5 23.6 15.2 53 6.3 ESE 19 24 10 13 1014.3 1012.9 0.0
10/08:30am 24.6 22.3 14.7 54 6.0 ESE 20 28 11 15 1014.3 1012.9 0.0
10/08:00am 23.8 22.9 15.8 61 4.9 SSE 15 20 8 11 1014.1 1012.7 0.0
10/07:30am 22.7 22.7 15.3 63 4.5 SSE 9 15 5 8 1013.8 1012.3 0.0
10/07:00am 21.8 21.7 15.9 69 3.6 SE 11 15 6 8 1013.6 1012.1 0.0
10/06:30am 20.5 21.4 16.1 76 2.7 S 6 7 3 4 1013.3 1011.8 0.0
10/06:00am 19.4 20.1 15.7 79 2.2 SSE 6 7 3 4 1013.2 1011.7 0.0
10/05:30am 19.7 19.9 15.8 78 2.3 SE 9 13 5 7 1012.7 1011.2 0.0
10/05:00am 20.0 20.4 17.2 84 1.7 SSE 11 13 6 7 1012.6 1011.1 0.0
10/04:30am 20.3 22.0 18.1 87 1.4 S 6 9 3 5 1012.2 1010.7 0.0
10/04:00am 19.8 21.1 17.6 87 1.4 SSE 7 9 4 5 1012.0 1010.5 0.0
10/03:30am 20.4 21.9 18.0 86 1.5 SE 7 9 4 5 1012.0 1010.5 0.0
10/03:00am 20.9 22.6 18.1 84 1.8 SSE 6 6 3 3 1011.9 1010.4 0.0
10/02:30am 20.7 21.9 16.9 79 2.3 S 6 7 3 4 1012.0 1010.5 0.0
10/02:00am 21.8 23.4 17.8 78 2.5 E 6 7 3 4 1012.0 1010.5 0.0
10/01:30am 22.2 23.4 17.3 74 3.0 ENE 7 9 4 5 1012.0 1010.5 0.0
10/01:00am 22.4 23.4 16.9 71 3.4 E 7 9 4 5 1012.1 1010.6 0.0
10/12:30am 23.0 24.0 17.7 72 3.3 ESE 9 13 5 7 1012.1 1010.6 0.0
10/12:00am 21.9 23.7 18.3 80 2.3 SE 6 7 3 4 1012.2 1010.7 0.0

Other Formats:

Comma delimited format used in spreadsheet applications
http://www.bom.gov.au/fwo/IDQ60801/IDQ60801.94396.axf

JavaScript Object Notation format (JSON) in row-major order
http://www.bom.gov.au/fwo/IDQ60801/IDQ60801.94396.json